createdAt,value
2023-02-22T00:04:51.002Z,51.67
2023-02-22T00:09:52.450Z,55.25
2023-02-22T00:14:54.018Z,56.92
2023-02-22T00:19:55.460Z,61.10
2023-02-22T00:25:17.270Z,59.35
2023-02-22T00:30:20.547Z,56.95
2023-02-22T00:35:23.272Z,60.63
2023-02-22T00:40:25.914Z,53.05
2023-02-22T00:45:28.448Z,58.97
2023-02-22T00:50:30.684Z,58.28
2023-02-22T00:55:33.476Z,51.47
2023-02-22T01:00:38.979Z,54.50
2023-02-22T01:05:40.524Z,56.08
2023-02-22T01:10:42.629Z,56.38
2023-02-22T01:15:45.285Z,58.20
2023-02-22T01:20:48.125Z,65.18
2023-02-22T01:25:49.665Z,62.72
2023-02-22T01:30:51.238Z,67.28
2023-02-22T01:35:52.746Z,64.57
2023-02-22T01:40:54.320Z,58.25
2023-02-22T01:46:03.082Z,56.90
2023-02-22T01:51:10.767Z,64.55
2023-02-22T01:56:12.698Z,64.03
2023-02-22T02:01:14.633Z,66.03
2023-02-22T02:06:16.825Z,61.63
2023-02-22T02:11:20.661Z,55.30
2023-02-22T02:16:23.753Z,64.47
2023-02-22T02:21:32.071Z,63.15
2023-02-22T02:26:51.683Z,64.95
2023-02-22T02:31:55.995Z,58.30
2023-02-22T02:37:01.215Z,59.10
2023-02-22T02:42:06.284Z,52.42
2023-02-22T02:47:13.810Z,57.33
2023-02-22T02:52:16.156Z,51.53
2023-02-22T02:57:17.681Z,50.35
2023-02-22T03:02:28.368Z,48.05
2023-02-22T03:07:48.311Z,51.78
2023-02-22T03:13:12.785Z,48.75
2023-02-22T03:18:22.899Z,43.47
2023-02-22T03:23:25.368Z,47.97
2023-02-22T03:28:27.984Z,48.20
2023-02-22T03:33:58.689Z,45.63
2023-02-22T03:39:01.176Z,45.88
2023-02-22T03:44:08.327Z,47.00
2023-02-22T03:49:12.123Z,51.00
2023-02-22T03:54:16.609Z,47.60
2023-02-22T03:59:18.363Z,48.13
2023-02-22T04:04:21.400Z,54.17
2023-02-22T04:14:38.390Z,56.60
2023-02-22T04:19:40.688Z,54.67
2023-02-22T04:24:42.141Z,53.28
2023-02-22T04:29:43.669Z,57.72
2023-02-22T04:34:45.188Z,50.25
2023-02-22T04:39:46.690Z,54.67
2023-02-22T04:44:48.240Z,54.33
2023-02-22T04:49:49.680Z,51.60
2023-02-22T04:54:51.152Z,52.13
2023-02-22T04:59:52.866Z,51.13
2023-02-22T05:04:54.297Z,59.88
2023-02-22T05:09:55.811Z,59.42
2023-02-22T05:14:57.244Z,51.30
2023-02-22T05:19:58.693Z,51.88
2023-02-22T05:25:00.174Z,52.53
2023-02-22T05:30:01.572Z,52.17
2023-02-22T05:35:03.036Z,50.28
2023-02-22T05:40:04.686Z,51.42
2023-02-22T05:45:06.566Z,49.65
2023-02-22T05:50:08.462Z,48.78
2023-02-22T05:55:10.446Z,44.88
2023-02-22T06:00:16.547Z,41.95
2023-02-22T06:05:18.145Z,42.67
2023-02-22T06:10:20.177Z,44.13
2023-02-22T06:15:22.089Z,46.00
2023-02-22T06:20:24.597Z,45.85
2023-02-22T06:25:27.224Z,44.03
2023-02-22T06:30:29.635Z,48.03
2023-02-22T06:35:31.196Z,46.45
2023-02-22T06:40:32.634Z,50.53
2023-02-22T06:45:34.104Z,50.05
2023-02-22T06:50:36.010Z,48.40
2023-02-22T06:55:37.658Z,57.63
2023-02-22T07:00:39.142Z,50.38
2023-02-22T07:05:40.569Z,53.78
2023-02-22T07:10:42.008Z,55.30
2023-02-22T07:15:43.481Z,52.10
2023-02-22T07:20:45.130Z,59.80
2023-02-22T07:25:46.621Z,61.85
2023-02-22T07:30:48.082Z,63.10
2023-02-22T07:35:50.593Z,63.05
2023-02-22T07:40:52.116Z,61.22
2023-02-22T07:45:55.338Z,62.28
2023-02-22T07:50:57.202Z,62.40
2023-02-22T07:55:59.306Z,64.25
2023-02-22T08:01:03.864Z,64.50
2023-02-22T08:06:06.171Z,62.92
2023-02-22T08:11:07.572Z,61.53
2023-02-22T08:16:09.208Z,69.85
2023-02-22T08:21:10.828Z,72.15
2023-02-22T08:26:20.865Z,70.43
2023-02-22T08:31:22.411Z,64.57
2023-02-22T08:36:23.861Z,64.85
2023-02-22T08:41:25.304Z,67.38
2023-02-22T08:46:26.705Z,58.47
2023-02-22T08:51:28.163Z,66.35
2023-02-22T08:56:30.309Z,69.85
2023-02-22T09:01:33.628Z,63.25
2023-02-22T09:06:35.643Z,61.80
2023-02-22T09:11:37.104Z,74.60
2023-02-22T09:16:38.600Z,69.43
2023-02-22T09:21:40.485Z,64.20
2023-02-22T09:26:47.282Z,65.88
2023-02-22T09:31:49.170Z,67.57
2023-02-22T09:36:50.749Z,62.40
2023-02-22T09:42:03.402Z,63.63
2023-02-22T09:47:04.981Z,58.78
2023-02-22T09:52:16.971Z,60.05
2023-02-22T09:57:21.605Z,65.75
2023-02-22T10:02:35.270Z,65.88
2023-02-22T10:07:40.699Z,60.47
2023-02-22T10:12:53.975Z,65.95
2023-02-22T10:18:14.057Z,66.80
2023-02-22T10:23:18.573Z,67.55
2023-02-22T10:28:39.036Z,63.80
2023-02-22T10:33:42.997Z,64.35
2023-02-22T10:38:48.893Z,57.85
2023-02-22T10:43:50.419Z,62.65
2023-02-22T10:48:54.456Z,62.30
2023-02-22T10:54:09.340Z,56.53
2023-02-22T10:59:10.852Z,56.22
2023-02-22T11:04:13.634Z,62.67
2023-02-22T11:09:22.457Z,73.13
2023-02-22T11:14:31.287Z,74.33
2023-02-22T11:19:33.841Z,66.47
2023-02-22T11:24:49.293Z,68.10
2023-02-22T11:29:51.768Z,67.18
2023-02-22T11:35:13.189Z,64.40
2023-02-22T11:40:18.234Z,67.97
2023-02-22T11:45:23.635Z,64.90
2023-02-22T11:50:28.265Z,62.13
2023-02-22T11:55:42.906Z,70.90
2023-02-22T12:00:49.924Z,68.47
2023-02-22T12:06:09.809Z,76.82
2023-02-22T12:11:12.873Z,64.45
2023-02-22T12:16:26.234Z,62.28
2023-02-22T12:21:29.876Z,67.05
2023-02-22T12:26:34.418Z,62.83
2023-02-22T12:31:53.296Z,62.70
2023-02-22T12:37:01.812Z,61.50
2023-02-22T12:42:04.796Z,54.58
2023-02-22T12:47:07.870Z,57.88
2023-02-22T12:52:28.092Z,56.80
2023-02-22T13:02:43.418Z,53.65
2023-02-22T13:07:54.236Z,63.88
2023-02-22T13:12:57.548Z,51.60
2023-02-22T13:18:17.749Z,60.10
2023-02-22T13:28:24.328Z,64.05
2023-02-22T13:33:32.600Z,54.30
2023-02-22T13:38:52.681Z,57.25
2023-02-22T13:44:14.326Z,58.63
2023-02-22T13:49:27.141Z,54.22
2023-02-22T13:54:37.451Z,57.42
2023-02-22T13:59:40.109Z,55.42
2023-02-22T14:04:41.931Z,59.40
2023-02-22T14:09:48.366Z,51.58
2023-02-22T14:15:18.738Z,50.55
2023-02-22T14:20:36.596Z,55.22
2023-02-22T14:25:40.103Z,51.53
2023-02-22T14:30:41.705Z,53.13
2023-02-22T14:35:49.970Z,49.47
2023-02-22T14:40:52.771Z,57.13
2023-02-22T14:45:56.192Z,49.63
2023-02-22T14:51:02.016Z,48.97
2023-02-22T14:56:11.827Z,46.75
2023-02-22T15:01:20.251Z,53.40
2023-02-22T15:06:23.368Z,50.22
2023-02-22T15:11:31.165Z,49.40
2023-02-22T15:16:34.221Z,45.78
2023-02-22T15:21:35.889Z,45.95
2023-02-22T15:26:52.009Z,46.50
2023-02-22T15:32:00.888Z,48.22
2023-02-22T15:37:18.651Z,48.63
2023-02-22T15:42:21.016Z,50.13
2023-02-22T15:47:24.230Z,47.30
2023-02-22T15:52:26.499Z,46.13
2023-02-22T15:57:29.864Z,44.92
2023-02-22T16:02:39.196Z,46.63
2023-02-22T16:07:50.954Z,46.15
2023-02-22T16:13:05.907Z,49.80
2023-02-22T16:18:18.027Z,48.17
2023-02-22T16:23:24.364Z,43.85
2023-02-22T16:28:27.500Z,47.63
2023-02-22T16:33:34.051Z,44.83
2023-02-22T16:38:38.516Z,46.65
2023-02-22T16:43:40.070Z,44.10
2023-02-22T16:48:44.631Z,47.70
2023-02-22T16:53:46.740Z,47.20
2023-02-22T16:58:49.919Z,43.80
2023-02-22T17:09:09.352Z,45.10
2023-02-22T17:14:11.186Z,47.33
2023-02-22T17:19:17.384Z,44.25
2023-02-22T17:24:22.475Z,50.42
2023-02-22T17:29:24.286Z,47.33
2023-02-22T17:34:25.739Z,45.08
2023-02-22T17:39:27.592Z,56.78
2023-02-22T17:44:30.222Z,56.15
2023-02-22T17:49:31.869Z,56.80
2023-02-22T17:54:34.290Z,55.05
2023-02-22T17:59:35.828Z,60.63
2023-02-22T18:04:39.631Z,61.13
2023-02-22T18:09:42.043Z,65.85
2023-02-22T18:14:43.513Z,68.15
2023-02-22T18:19:44.990Z,66.05
2023-02-22T18:24:46.466Z,68.30
2023-02-22T18:29:47.941Z,75.57
2023-02-22T18:34:49.987Z,72.53
2023-02-22T18:39:51.795Z,77.45
2023-02-22T18:44:54.486Z,79.25
2023-02-22T18:49:56.924Z,82.82
2023-02-22T18:54:59.985Z,75.20
2023-02-22T19:00:01.499Z,75.88
2023-02-22T19:05:03.892Z,62.30
2023-02-22T19:10:06.057Z,67.20
2023-02-22T19:15:08.172Z,65.43
2023-02-22T19:20:10.765Z,67.07
2023-02-22T19:25:12.206Z,66.63
2023-02-22T19:35:28.799Z,66.28
2023-02-22T19:40:30.284Z,68.70
2023-02-22T19:45:31.801Z,67.35
2023-02-22T19:50:33.297Z,66.78
2023-02-22T19:55:36.324Z,64.32
2023-02-22T20:00:37.774Z,70.22
2023-02-22T20:05:40.061Z,69.03
2023-02-22T20:10:41.529Z,65.60
2023-02-22T20:15:43.363Z,64.38
2023-02-22T20:20:44.776Z,64.38
2023-02-22T20:25:53.113Z,68.65
2023-02-22T20:30:54.562Z,67.63
2023-02-22T20:35:55.986Z,67.18
2023-02-22T20:40:57.442Z,70.07
2023-02-22T20:46:02.550Z,76.30
2023-02-22T20:51:07.445Z,70.55
2023-02-22T20:56:12.498Z,78.43
2023-02-22T21:01:17.106Z,78.28
2023-02-22T21:06:21.515Z,72.85
2023-02-22T21:11:23.927Z,78.45
2023-02-22T21:16:29.894Z,76.75
2023-02-22T21:21:31.948Z,75.10
2023-02-22T21:26:34.404Z,81.13
2023-02-22T21:31:36.653Z,83.50
2023-02-22T21:36:38.875Z,81.40
2023-02-22T21:41:40.960Z,83.13
2023-02-22T21:46:42.918Z,76.40
2023-02-22T21:51:45.000Z,82.25
2023-02-22T21:56:46.539Z,75.38
2023-02-22T22:01:50.103Z,85.22
2023-02-22T22:06:52.695Z,88.03
2023-02-22T22:11:58.310Z,76.20
2023-02-22T22:17:00.205Z,84.82
2023-02-22T22:22:02.785Z,78.40
2023-02-22T22:27:06.516Z,83.93
2023-02-22T22:32:09.055Z,84.85
2023-02-22T22:37:10.638Z,90.40
2023-02-22T22:42:13.424Z,84.32
2023-02-22T22:47:14.923Z,85.70
2023-02-22T22:52:16.600Z,80.00
2023-02-22T22:57:18.065Z,74.65
2023-02-22T23:02:20.602Z,77.70
2023-02-22T23:07:22.038Z,80.78
2023-02-22T23:12:31.433Z,73.35
2023-02-22T23:17:41.188Z,74.15
2023-02-22T23:22:46.971Z,75.63
2023-02-22T23:27:49.407Z,69.68
2023-02-22T23:32:50.835Z,77.03
2023-02-22T23:37:58.003Z,68.32
2023-02-22T23:43:04.061Z,72.47
2023-02-22T23:48:05.663Z,67.47
2023-02-22T23:53:07.083Z,71.68
2023-02-22T23:58:08.512Z,72.20
